sensor_id;sensor_type;location;lat;lon;timestamp;pressure;altitude;pressure_sealevel;temperature;humidity
64679;BME280;51094;53.864;27.676;2024-01-06T00:01:10;98686.72;;;-6.56;62.91
64679;BME280;51094;53.864;27.676;2024-01-06T00:03:38;98685.03;;;-6.54;62.57
64679;BME280;51094;53.864;27.676;2024-01-06T00:06:05;98682.47;;;-6.52;62.29
64679;BME280;51094;53.864;27.676;2024-01-06T00:08:33;98708.50;;;-6.44;62.60
64679;BME280;51094;53.864;27.676;2024-01-06T00:11:00;98683.22;;;-6.47;62.19
64679;BME280;51094;53.864;27.676;2024-01-06T00:13:29;98650.66;;;-6.72;62.26
64679;BME280;51094;53.864;27.676;2024-01-06T00:15:57;98652.41;;;-6.77;62.11
64679;BME280;51094;53.864;27.676;2024-01-06T00:18:24;98687.63;;;-6.61;61.58
64679;BME280;51094;53.864;27.676;2024-01-06T00:20:51;98675.97;;;-6.76;61.99
64679;BME280;51094;53.864;27.676;2024-01-06T00:23:18;98696.09;;;-6.65;62.29
64679;BME280;51094;53.864;27.676;2024-01-06T00:25:45;98614.91;;;-7.16;61.97
64679;BME280;51094;53.864;27.676;2024-01-06T00:28:12;98698.72;;;-6.75;62.32
64679;BME280;51094;53.864;27.676;2024-01-06T00:30:40;98669.38;;;-6.88;62.37
64679;BME280;51094;53.864;27.676;2024-01-06T00:33:07;98677.09;;;-7.01;61.85
64679;BME280;51094;53.864;27.676;2024-01-06T00:35:34;98705.31;;;-7.49;61.61
64679;BME280;51094;53.864;27.676;2024-01-06T00:38:01;98698.81;;;-6.84;62.61
64679;BME280;51094;53.864;27.676;2024-01-06T00:40:29;98694.63;;;-6.86;61.88
64679;BME280;51094;53.864;27.676;2024-01-06T00:42:56;98708.06;;;-6.83;62.01
64679;BME280;51094;53.864;27.676;2024-01-06T00:45:23;98682.88;;;-6.92;61.70
64679;BME280;51094;53.864;27.676;2024-01-06T00:47:50;98705.69;;;-6.95;61.80
64679;BME280;51094;53.864;27.676;2024-01-06T00:50:18;98731.72;;;-6.87;62.58
64679;BME280;51094;53.864;27.676;2024-01-06T00:52:46;98699.00;;;-7.02;61.88
64679;BME280;51094;53.864;27.676;2024-01-06T00:55:13;98437.97;;;-8.68;62.00
64679;BME280;51094;53.864;27.676;2024-01-06T00:57:40;98724.25;;;-6.97;61.71
64679;BME280;51094;53.864;27.676;2024-01-06T01:00:07;98751.97;;;-6.93;62.25
64679;BME280;51094;53.864;27.676;2024-01-06T01:02:38;98726.75;;;-6.94;61.85
64679;BME280;51094;53.864;27.676;2024-01-06T01:05:06;98710.88;;;-7.10;61.99
64679;BME280;51094;53.864;27.676;2024-01-06T01:07:36;98659.88;;;-7.52;62.51
64679;BME280;51094;53.864;27.676;2024-01-06T01:10:04;98733.59;;;-7.07;62.36
64679;BME280;51094;53.864;27.676;2024-01-06T01:12:32;98724.38;;;-7.14;62.77
64679;BME280;51094;53.864;27.676;2024-01-06T01:14:59;98738.63;;;-7.04;61.86
64679;BME280;51094;53.864;27.676;2024-01-06T01:17:26;98788.31;;;-7.05;62.05
64679;BME280;51094;53.864;27.676;2024-01-06T01:19:53;98732.81;;;-7.17;61.64
64679;BME280;51094;53.864;27.676;2024-01-06T01:22:21;98742.91;;;-7.15;61.61
64679;BME280;51094;53.864;27.676;2024-01-06T01:24:48;98751.28;;;-7.06;62.61
64679;BME280;51094;53.864;27.676;2024-01-06T01:27:15;98752.22;;;-7.20;62.75
64679;BME280;51094;53.864;27.676;2024-01-06T01:29:43;98753.78;;;-7.04;62.19
64679;BME280;51094;53.864;27.676;2024-01-06T01:32:10;98744.59;;;-7.13;62.25
64679;BME280;51094;53.864;27.676;2024-01-06T01:34:37;98753.03;;;-7.14;62.74
64679;BME280;51094;53.864;27.676;2024-01-06T01:37:04;98750.56;;;-7.24;63.06
64679;BME280;51094;53.864;27.676;2024-01-06T01:39:31;98698.69;;;-7.65;63.89
64679;BME280;51094;53.864;27.676;2024-01-06T01:41:58;98764.94;;;-7.31;64.19
64679;BME280;51094;53.864;27.676;2024-01-06T01:44:25;98753.97;;;-7.28;63.03
64679;BME280;51094;53.864;27.676;2024-01-06T01:46:52;98739.69;;;-7.35;63.15
64679;BME280;51094;53.864;27.676;2024-01-06T01:49:19;98756.50;;;-7.30;63.78
64679;BME280;51094;53.864;27.676;2024-01-06T01:51:48;98771.59;;;-7.21;64.40
64679;BME280;51094;53.864;27.676;2024-01-06T01:54:16;98577.28;;;-8.45;64.70
64679;BME280;51094;53.864;27.676;2024-01-06T01:56:43;98760.72;;;-7.33;63.71
64679;BME280;51094;53.864;27.676;2024-01-06T01:59:12;98754.94;;;-7.42;65.09
64679;BME280;51094;53.864;27.676;2024-01-06T02:01:46;98734.88;;;-7.64;65.71
64679;BME280;51094;53.864;27.676;2024-01-06T02:04:13;98755.06;;;-7.64;66.38
64679;BME280;51094;53.864;27.676;2024-01-06T02:06:40;98776.91;;;-7.60;67.33
64679;BME280;51094;53.864;27.676;2024-01-06T02:09:07;98778.59;;;-7.59;67.64
64679;BME280;51094;53.864;27.676;2024-01-06T02:11:34;98695.63;;;-8.16;68.39
64679;BME280;51094;53.864;27.676;2024-01-06T02:14:01;98798.81;;;-7.62;68.65
64679;BME280;51094;53.864;27.676;2024-01-06T02:16:28;98750.06;;;-7.75;68.05
64679;BME280;51094;53.864;27.676;2024-01-06T02:18:56;98764.31;;;-7.62;68.81
64679;BME280;51094;53.864;27.676;2024-01-06T02:21:27;98820.75;;;-7.74;68.56
64679;BME280;51094;53.864;27.676;2024-01-06T02:23:55;98774.41;;;-7.62;68.75
64679;BME280;51094;53.864;27.676;2024-01-06T02:26:22;98745.88;;;-7.78;69.16
64679;BME280;51094;53.864;27.676;2024-01-06T02:28:49;98767.72;;;-7.71;69.63
64679;BME280;51094;53.864;27.676;2024-01-06T02:31:16;98781.19;;;-7.75;69.83
64679;BME280;51094;53.864;27.676;2024-01-06T02:33:44;98808.41;;;-8.45;70.59
64679;BME280;51094;53.864;27.676;2024-01-06T02:36:11;98770.25;;;-7.74;70.75
64679;BME280;51094;53.864;27.676;2024-01-06T02:38:38;98785.47;;;-7.80;71.30
64679;BME280;51094;53.864;27.676;2024-01-06T02:41:05;98708.25;;;-8.20;69.95
64679;BME280;51094;53.864;27.676;2024-01-06T02:43:32;98772.84;;;-7.81;71.01
64679;BME280;51094;53.864;27.676;2024-01-06T02:45:59;98764.47;;;-7.92;71.26
64679;BME280;51094;53.864;27.676;2024-01-06T02:48:26;98751.88;;;-7.98;72.28
64679;BME280;51094;53.864;27.676;2024-01-06T02:50:53;98774.59;;;-7.97;72.56
64679;BME280;51094;53.864;27.676;2024-01-06T02:53:20;98762.88;;;-8.09;71.88
64679;BME280;51094;53.864;27.676;2024-01-06T02:55:47;98754.50;;;-8.20;72.22
64679;BME280;51094;53.864;27.676;2024-01-06T02:58:14;98772.13;;;-8.09;72.85
64679;BME280;51094;53.864;27.676;2024-01-06T03:00:41;98776.31;;;-8.10;73.53
64679;BME280;51094;53.864;27.676;2024-01-06T03:03:09;98772.13;;;-8.11;73.80
64679;BME280;51094;53.864;27.676;2024-01-06T03:05:36;98772.16;;;-8.21;74.73
64679;BME280;51094;53.864;27.676;2024-01-06T03:08:04;98772.19;;;-8.27;75.14
64679;BME280;51094;53.864;27.676;2024-01-06T03:10:31;98653.97;;;-9.05;74.71
64679;BME280;51094;53.864;27.676;2024-01-06T03:12:58;98784.75;;;-8.15;75.56
64679;BME280;51094;53.864;27.676;2024-01-06T03:15:25;98773.81;;;-8.16;75.57
64679;BME280;51094;53.864;27.676;2024-01-06T03:17:53;98783.00;;;-7.99;74.63
64679;BME280;51094;53.864;27.676;2024-01-06T03:20:20;98782.97;;;-7.92;74.81
64679;BME280;51094;53.864;27.676;2024-01-06T03:22:47;98765.38;;;-8.09;75.54
64679;BME280;51094;53.864;27.676;2024-01-06T03:25:14;98778.81;;;-8.03;75.12
64679;BME280;51094;53.864;27.676;2024-01-06T03:27:41;98763.72;;;-8.16;75.60
64679;BME280;51094;53.864;27.676;2024-01-06T03:30:09;98746.19;;;-8.37;75.32
64679;BME280;51094;53.864;27.676;2024-01-06T03:32:37;98769.63;;;-8.18;75.39
64679;BME280;51094;53.864;27.676;2024-01-06T03:35:05;98788.94;;;-8.08;75.25
64679;BME280;51094;53.864;27.676;2024-01-06T03:37:33;98738.63;;;-8.35;76.06
64679;BME280;51094;53.864;27.676;2024-01-06T03:40:01;98758.66;;;-8.07;76.16
64679;BME280;51094;53.864;27.676;2024-01-06T03:42:28;98786.34;;;-7.87;75.07
64679;BME280;51094;53.864;27.676;2024-01-06T03:44:55;98762.81;;;-7.96;75.80
64679;BME280;51094;53.864;27.676;2024-01-06T03:47:22;98767.00;;;-7.94;75.54
64679;BME280;51094;53.864;27.676;2024-01-06T03:49:50;98782.13;;;-7.89;75.21
64679;BME280;51094;53.864;27.676;2024-01-06T03:52:17;98793.88;;;-7.82;75.52
64679;BME280;51094;53.864;27.676;2024-01-06T03:54:44;98637.13;;;-8.82;76.12
64679;BME280;51094;53.864;27.676;2024-01-06T03:57:11;98772.06;;;-7.97;75.93
64679;BME280;51094;53.864;27.676;2024-01-06T03:59:38;98714.25;;;-8.38;77.11
64679;BME280;51094;53.864;27.676;2024-01-06T04:02:05;98770.44;;;-8.15;76.66
64679;BME280;51094;53.864;27.676;2024-01-06T04:04:34;98796.31;;;-7.67;76.71
64679;BME280;51094;53.864;27.676;2024-01-06T04:07:01;98626.09;;;-8.61;76.96
64679;BME280;51094;53.864;27.676;2024-01-06T04:09:29;98768.53;;;-7.65;75.99
64679;BME280;51094;53.864;27.676;2024-01-06T04:11:56;98715.72;;;-7.96;75.76
64679;BME280;51094;53.864;27.676;2024-01-06T04:14:23;98794.59;;;-7.59;76.11
64679;BME280;51094;53.864;27.676;2024-01-06T04:16:50;98772.72;;;-7.60;75.52
64679;BME280;51094;53.864;27.676;2024-01-06T04:19:18;98777.72;;;-7.54;75.40
64679;BME280;51094;53.864;27.676;2024-01-06T04:21:45;98767.59;;;-7.51;75.45
64679;BME280;51094;53.864;27.676;2024-01-06T04:24:12;98762.56;;;-7.54;74.81
64679;BME280;51094;53.864;27.676;2024-01-06T04:26:39;98775.84;;;-7.27;75.28
64679;BME280;51094;53.864;27.676;2024-01-06T04:29:06;98798.56;;;-7.23;75.30
64679;BME280;51094;53.864;27.676;2024-01-06T04:31:33;98734.00;;;-7.63;74.52
64679;BME280;51094;53.864;27.676;2024-01-06T04:34:01;98794.31;;;-7.18;74.66
64679;BME280;51094;53.864;27.676;2024-01-06T04:36:30;98794.25;;;-7.09;74.43
64679;BME280;51094;53.864;27.676;2024-01-06T04:38:57;98800.09;;;-7.00;74.62
64679;BME280;51094;53.864;27.676;2024-01-06T04:41:24;98792.53;;;-7.02;73.93
64679;BME280;51094;53.864;27.676;2024-01-06T04:43:51;98791.69;;;-7.04;73.49
64679;BME280;51094;53.864;27.676;2024-01-06T04:46:18;98781.59;;;-7.04;74.52
64679;BME280;51094;53.864;27.676;2024-01-06T04:48:45;98799.91;;;-6.82;74.25
64679;BME280;51094;53.864;27.676;2024-01-06T04:51:12;98817.59;;;-6.78;73.84
64679;BME280;51094;53.864;27.676;2024-01-06T04:53:40;98779.97;;;-7.14;73.90
64679;BME280;51094;53.864;27.676;2024-01-06T04:56:07;98813.38;;;-6.79;74.19
64679;BME280;51094;53.864;27.676;2024-01-06T04:58:34;98821.72;;;-6.67;73.20
64679;BME280;51094;53.864;27.676;2024-01-06T05:01:01;98780.72;;;-7.00;73.56
64679;BME280;51094;53.864;27.676;2024-01-06T05:03:29;98826.81;;;-6.72;72.81
64679;BME280;51094;53.864;27.676;2024-01-06T05:05:56;98759.63;;;-6.96;73.77
64679;BME280;51094;53.864;27.676;2024-01-06T05:08:23;98818.25;;;-6.56;73.36
64679;BME280;51094;53.864;27.676;2024-01-06T05:10:52;98797.19;;;-6.56;73.56
64679;BME280;51094;53.864;27.676;2024-01-06T05:13:19;98771.25;;;-6.81;72.74
64679;BME280;51094;53.864;27.676;2024-01-06T05:15:46;98822.31;;;-6.44;72.84
64679;BME280;51094;53.864;27.676;2024-01-06T05:18:13;98798.00;;;-6.54;72.36
64679;BME280;51094;53.864;27.676;2024-01-06T05:20:41;98801.44;;;-6.61;72.88
64679;BME280;51094;53.864;27.676;2024-01-06T05:23:08;98832.31;;;-6.29;72.62
64679;BME280;51094;53.864;27.676;2024-01-06T05:25:35;98821.25;;;-6.20;73.28
64679;BME280;51094;53.864;27.676;2024-01-06T05:28:02;98709.72;;;-6.79;72.90
64679;BME280;51094;53.864;27.676;2024-01-06T05:30:29;98823.66;;;-6.07;73.41
64679;BME280;51094;53.864;27.676;2024-01-06T05:32:56;98810.19;;;-6.12;72.59
64679;BME280;51094;53.864;27.676;2024-01-06T05:35:24;98823.47;;;-5.94;72.70
64679;BME280;51094;53.864;27.676;2024-01-06T05:37:51;98640.91;;;-7.05;72.30
64679;BME280;51094;53.864;27.676;2024-01-06T05:40:18;98753.03;;;-6.29;72.06
64679;BME280;51094;53.864;27.676;2024-01-06T05:42:45;98773.22;;;-6.23;71.46
64679;BME280;51094;53.864;27.676;2024-01-06T05:45:12;98692.88;;;-6.81;72.09
64679;BME280;51094;53.864;27.676;2024-01-06T05:47:40;98833.56;;;-5.91;71.22
64679;BME280;51094;53.864;27.676;2024-01-06T05:50:07;98789.47;;;-6.47;71.14
64679;BME280;51094;53.864;27.676;2024-01-06T05:52:37;98837.09;;;-6.05;72.44
64679;BME280;51094;53.864;27.676;2024-01-06T05:55:04;98783.41;;;-6.31;72.58
64679;BME280;51094;53.864;27.676;2024-01-06T05:57:31;98835.94;;;-5.78;72.28
64679;BME280;51094;53.864;27.676;2024-01-06T06:00:00;98814.94;;;-5.87;72.15
64679;BME280;51094;53.864;27.676;2024-01-06T06:02:27;98786.38;;;-5.95;72.10
64679;BME280;51094;53.864;27.676;2024-01-06T06:04:54;98842.38;;;-5.54;71.92
64679;BME280;51094;53.864;27.676;2024-01-06T06:07:21;98849.22;;;-5.62;71.87
64679;BME280;51094;53.864;27.676;2024-01-06T06:09:48;98852.50;;;-5.55;72.20
64679;BME280;51094;53.864;27.676;2024-01-06T06:12:15;98794.66;;;-5.84;71.96
64679;BME280;51094;53.864;27.676;2024-01-06T06:14:43;98839.84;;;-5.54;71.86
64679;BME280;51094;53.864;27.676;2024-01-06T06:17:10;98787.13;;;-5.89;70.73
64679;BME280;51094;53.864;27.676;2024-01-06T06:19:37;98820.75;;;-5.79;70.47
64679;BME280;51094;53.864;27.676;2024-01-06T06:22:04;98856.88;;;-5.65;70.31
64679;BME280;51094;53.864;27.676;2024-01-06T06:24:31;98868.81;;;-5.76;70.84
64679;BME280;51094;53.864;27.676;2024-01-06T06:26:58;98876.50;;;-5.82;70.82
64679;BME280;51094;53.864;27.676;2024-01-06T06:29:25;98850.56;;;-6.03;71.45
64679;BME280;51094;53.864;27.676;2024-01-06T06:31:52;98861.56;;;-6.05;71.69
64679;BME280;51094;53.864;27.676;2024-01-06T06:34:19;98861.56;;;-6.04;71.77
64679;BME280;51094;53.864;27.676;2024-01-06T06:36:47;98814.53;;;-6.24;71.84
64679;BME280;51094;53.864;27.676;2024-01-06T06:39:14;98878.34;;;-5.96;71.52
64679;BME280;51094;53.864;27.676;2024-01-06T06:41:42;98876.53;;;-5.87;72.42
64679;BME280;51094;53.864;27.676;2024-01-06T06:44:10;98882.31;;;-5.74;71.93
64679;BME280;51094;53.864;27.676;2024-01-06T06:46:37;98791.84;;;-6.32;71.38
64679;BME280;51094;53.864;27.676;2024-01-06T06:49:04;98882.16;;;-5.62;71.56
64679;BME280;51094;53.864;27.676;2024-01-06T06:51:32;98883.78;;;-5.56;71.29
64679;BME280;51094;53.864;27.676;2024-01-06T06:53:59;98883.69;;;-5.49;71.29
64679;BME280;51094;53.864;27.676;2024-01-06T06:56:26;98882.69;;;-5.37;71.49
64679;BME280;51094;53.864;27.676;2024-01-06T06:58:53;98883.47;;;-5.30;70.55
64679;BME280;51094;53.864;27.676;2024-01-06T07:01:21;98886.75;;;-5.22;71.21
64679;BME280;51094;53.864;27.676;2024-01-06T07:03:48;98893.41;;;-5.18;69.79
64679;BME280;51094;53.864;27.676;2024-01-06T07:06:15;98890.19;;;-5.28;69.09
64679;BME280;51094;53.864;27.676;2024-01-06T07:08:42;98890.16;;;-5.26;69.96
64679;BME280;51094;53.864;27.676;2024-01-06T07:11:09;98895.22;;;-5.25;68.68
64679;BME280;51094;53.864;27.676;2024-01-06T07:13:38;98895.25;;;-5.28;67.92
64679;BME280;51094;53.864;27.676;2024-01-06T07:16:06;98902.75;;;-5.20;68.96
64679;BME280;51094;53.864;27.676;2024-01-06T07:18:44;98884.38;;;-5.36;68.58
64679;BME280;51094;53.864;27.676;2024-01-06T07:21:12;98906.84;;;-5.10;68.85
64679;BME280;51094;53.864;27.676;2024-01-06T07:23:40;98916.03;;;-5.03;68.50
64679;BME280;51094;53.864;27.676;2024-01-06T07:26:07;98914.25;;;-4.95;68.67
64679;BME280;51094;53.864;27.676;2024-01-06T07:28:35;98901.47;;;-4.89;68.75
64679;BME280;51094;53.864;27.676;2024-01-06T07:31:02;98889.78;;;-4.99;68.53
64679;BME280;51094;53.864;27.676;2024-01-06T07:33:32;98915.09;;;-4.96;67.41
64679;BME280;51094;53.864;27.676;2024-01-06T07:36:00;98920.97;;;-4.92;68.74
64679;BME280;51094;53.864;27.676;2024-01-06T07:38:27;98893.97;;;-4.96;67.59
64679;BME280;51094;53.864;27.676;2024-01-06T07:40:58;98900.69;;;-4.94;68.57
64679;BME280;51094;53.864;27.676;2024-01-06T07:43:24;98909.78;;;-4.79;68.73
64679;BME280;51094;53.864;27.676;2024-01-06T07:45:53;98903.00;;;-4.77;68.42
64679;BME280;51094;53.864;27.676;2024-01-06T07:48:20;98906.31;;;-4.75;67.95
64679;BME280;51094;53.864;27.676;2024-01-06T07:50:48;98873.66;;;-4.95;67.64
64679;BME280;51094;53.864;27.676;2024-01-06T07:53:15;98920.63;;;-4.70;67.91
64679;BME280;51094;53.864;27.676;2024-01-06T07:55:42;98902.19;;;-4.79;67.84
64679;BME280;51094;53.864;27.676;2024-01-06T07:58:10;98922.22;;;-4.64;67.27
64679;BME280;51094;53.864;27.676;2024-01-06T08:00:38;98908.19;;;-4.85;68.11
64679;BME280;51094;53.864;27.676;2024-01-06T08:03:05;98911.38;;;-4.74;67.48
64679;BME280;51094;53.864;27.676;2024-01-06T08:05:33;98928.66;;;-4.42;68.67
64679;BME280;51094;53.864;27.676;2024-01-06T08:08:00;98929.47;;;-4.38;68.21
64679;BME280;51094;53.864;27.676;2024-01-06T08:10:27;98906.69;;;-4.43;67.46
64679;BME280;51094;53.864;27.676;2024-01-06T08:12:54;98938.81;;;-4.42;66.87
64679;BME280;51094;53.864;27.676;2024-01-06T08:15:21;98920.22;;;-4.44;67.12
64679;BME280;51094;53.864;27.676;2024-01-06T08:17:49;98879.09;;;-4.64;67.79
64679;BME280;51094;53.864;27.676;2024-01-06T08:20:16;98927.47;;;-4.21;67.44
64679;BME280;51094;53.864;27.676;2024-01-06T08:22:43;98913.19;;;-4.28;66.91
64679;BME280;51094;53.864;27.676;2024-01-06T08:25:11;98864.47;;;-4.48;67.91
64679;BME280;51094;53.864;27.676;2024-01-06T08:27:38;98940.16;;;-3.73;67.76
64679;BME280;51094;53.864;27.676;2024-01-06T08:30:05;98947.47;;;-3.55;67.23
64679;BME280;51094;53.864;27.676;2024-01-06T08:32:34;98958.03;;;-3.78;64.85
64679;BME280;51094;53.864;27.676;2024-01-06T08:35:01;98962.13;;;-4.18;64.72
64679;BME280;51094;53.864;27.676;2024-01-06T08:37:28;98910.59;;;-4.25;65.50
64679;BME280;51094;53.864;27.676;2024-01-06T08:39:55;98941.78;;;-4.17;66.51
64679;BME280;51094;53.864;27.676;2024-01-06T08:42:22;98898.94;;;-4.33;66.78
64679;BME280;51094;53.864;27.676;2024-01-06T08:44:51;98949.09;;;-3.98;66.38
64679;BME280;51094;53.864;27.676;2024-01-06T08:47:18;98949.84;;;-3.92;66.30
64679;BME280;51094;53.864;27.676;2024-01-06T08:49:45;98949.06;;;-3.95;66.33
64679;BME280;51094;53.864;27.676;2024-01-06T08:52:12;98913.03;;;-4.19;65.73
64679;BME280;51094;53.864;27.676;2024-01-06T08:54:40;98879.53;;;-4.38;66.37
64679;BME280;51094;53.864;27.676;2024-01-06T08:57:07;98932.97;;;-3.96;66.47
64679;BME280;51094;53.864;27.676;2024-01-06T08:59:34;98932.72;;;-3.84;66.56
64679;BME280;51094;53.864;27.676;2024-01-06T09:02:01;98937.19;;;-3.95;65.95
64679;BME280;51094;53.864;27.676;2024-01-06T09:04:28;98952.50;;;-3.99;65.77
64679;BME280;51094;53.864;27.676;2024-01-06T09:06:55;98930.66;;;-4.10;66.42
64679;BME280;51094;53.864;27.676;2024-01-06T09:09:22;98939.16;;;-4.11;66.61
64679;BME280;51094;53.864;27.676;2024-01-06T09:11:50;98929.00;;;-4.12;66.90
64679;BME280;51094;53.864;27.676;2024-01-06T09:14:18;98953.19;;;-3.90;67.26
64679;BME280;51094;53.864;27.676;2024-01-06T09:16:45;98879.28;;;-4.24;66.62
64679;BME280;51094;53.864;27.676;2024-01-06T09:19:12;98950.28;;;-3.70;67.13
64679;BME280;51094;53.864;27.676;2024-01-06T09:21:39;98957.41;;;-3.44;67.73
64679;BME280;51094;53.864;27.676;2024-01-06T09:24:06;98932.63;;;-3.35;67.72
64679;BME280;51094;53.864;27.676;2024-01-06T09:26:33;98953.13;;;-3.01;67.18
64679;BME280;51094;53.864;27.676;2024-01-06T09:29:01;98925.94;;;-2.98;66.69
64679;BME280;51094;53.864;27.676;2024-01-06T09:31:30;98927.53;;;-2.93;65.98
64679;BME280;51094;53.864;27.676;2024-01-06T09:34:01;98947.66;;;-2.82;65.50
64679;BME280;51094;53.864;27.676;2024-01-06T09:36:31;98962.22;;;-2.89;64.41
64679;BME280;51094;53.864;27.676;2024-01-06T09:38:58;98925.22;;;-3.45;64.36
64679;BME280;51094;53.864;27.676;2024-01-06T09:41:25;98967.81;;;-3.13;65.98
64679;BME280;51094;53.864;27.676;2024-01-06T09:43:53;98973.00;;;-2.78;66.17
64679;BME280;51094;53.864;27.676;2024-01-06T09:46:27;98925.03;;;-2.96;65.84
64679;BME280;51094;53.864;27.676;2024-01-06T09:48:56;98958.94;;;-2.57;65.64
64679;BME280;51094;53.864;27.676;2024-01-06T09:51:25;98973.31;;;-2.54;64.40
64679;BME280;51094;53.864;27.676;2024-01-06T09:54:00;99015.66;;;-2.50;64.96
64679;BME280;51094;53.864;27.676;2024-01-06T09:56:29;98971.25;;;-2.37;64.71
64679;BME280;51094;53.864;27.676;2024-01-06T09:58:56;98977.72;;;-2.24;64.63
64679;BME280;51094;53.864;27.676;2024-01-06T10:01:23;98952.75;;;-2.45;64.21
64679;BME280;51094;53.864;27.676;2024-01-06T10:03:51;98884.53;;;-3.04;63.93
64679;BME280;51094;53.864;27.676;2024-01-06T10:06:18;98973.63;;;-2.29;65.06
64679;BME280;51094;53.864;27.676;2024-01-06T10:08:51;98957.16;;;-2.16;64.15
64679;BME280;51094;53.864;27.676;2024-01-06T10:11:19;98946.78;;;-2.09;63.58
64679;BME280;51094;53.864;27.676;2024-01-06T10:13:51;98931.91;;;-2.25;63.08
64679;BME280;51094;53.864;27.676;2024-01-06T10:16:19;98963.28;;;-1.89;62.89
64679;BME280;51094;53.864;27.676;2024-01-06T10:18:46;98943.13;;;-1.98;62.77
64679;BME280;51094;53.864;27.676;2024-01-06T10:21:22;98945.41;;;-1.88;63.13
64679;BME280;51094;53.864;27.676;2024-01-06T10:23:54;98972.59;;;-1.56;62.76
64679;BME280;51094;53.864;27.676;2024-01-06T10:26:21;98973.28;;;-1.49;60.02
64679;BME280;51094;53.864;27.676;2024-01-06T10:28:48;98976.84;;;-1.55;61.42
64679;BME280;51094;53.864;27.676;2024-01-06T10:31:17;98966.06;;;-1.66;61.27
64679;BME280;51094;53.864;27.676;2024-01-06T10:33:45;98975.16;;;-1.56;61.95
64679;BME280;51094;53.864;27.676;2024-01-06T10:36:12;98963.56;;;-1.68;60.92
64679;BME280;51094;53.864;27.676;2024-01-06T10:38:40;98907.72;;;-2.09;61.00
64679;BME280;51094;53.864;27.676;2024-01-06T10:41:07;98942.91;;;-1.89;61.02
64679;BME280;51094;53.864;27.676;2024-01-06T10:43:36;98966.88;;;-1.64;61.25
64679;BME280;51094;53.864;27.676;2024-01-06T10:46:05;98975.94;;;-1.54;60.50
64679;BME280;51094;53.864;27.676;2024-01-06T10:48:38;98968.09;;;-1.77;60.67
64679;BME280;51094;53.864;27.676;2024-01-06T10:51:11;98981.66;;;-1.44;60.79
64679;BME280;51094;53.864;27.676;2024-01-06T10:53:43;98960.56;;;-1.51;60.23
64679;BME280;51094;53.864;27.676;2024-01-06T10:56:10;98944.78;;;-1.65;60.17
64679;BME280;51094;53.864;27.676;2024-01-06T10:58:42;98965.50;;;-1.45;60.05
64679;BME280;51094;53.864;27.676;2024-01-06T11:01:12;98984.75;;;-1.33;59.77
64679;BME280;51094;53.864;27.676;2024-01-06T11:03:45;98988.19;;;-1.34;59.55
64679;BME280;51094;53.864;27.676;2024-01-06T11:06:12;98979.31;;;-1.21;60.15
64679;BME280;51094;53.864;27.676;2024-01-06T11:09:11;98971.78;;;-1.25;59.42
64679;BME280;51094;53.864;27.676;2024-01-06T11:11:42;98968.06;;;-1.45;58.81
64679;BME280;51094;53.864;27.676;2024-01-06T11:14:26;98968.19;;;-1.49;59.34
64679;BME280;51094;53.864;27.676;2024-01-06T11:16:55;98958.47;;;-1.68;59.33
64679;BME280;51094;53.864;27.676;2024-01-06T11:24:51;98956.09;;;-1.74;59.51
64679;BME280;51094;53.864;27.676;2024-01-06T11:27:28;98969.19;;;-1.87;58.70
64679;BME280;51094;53.864;27.676;2024-01-06T11:30:01;99001.06;;;-2.07;59.45
64679;BME280;51094;53.864;27.676;2024-01-06T11:32:36;98976.13;;;-2.28;58.93
64679;BME280;51094;53.864;27.676;2024-01-06T11:35:07;98981.50;;;-2.40;59.26
64679;BME280;51094;53.864;27.676;2024-01-06T11:42:58;99038.06;;;-2.26;59.25
64679;BME280;51094;53.864;27.676;2024-01-06T11:45:26;98961.38;;;-2.51;59.55
64679;BME280;51094;53.864;27.676;2024-01-06T11:47:58;98965.25;;;-2.72;59.63
64679;BME280;51094;53.864;27.676;2024-01-06T11:50:27;98917.16;;;-2.84;59.54
64679;BME280;51094;53.864;27.676;2024-01-06T11:52:55;99044.41;;;-2.45;59.70
64679;BME280;51094;53.864;27.676;2024-01-06T11:55:22;99016.44;;;-2.47;60.36
64679;BME280;51094;53.864;27.676;2024-01-06T11:57:49;99017.38;;;-2.51;59.66
64679;BME280;51094;53.864;27.676;2024-01-06T12:00:17;98996.91;;;-2.85;59.17
64679;BME280;51094;53.864;27.676;2024-01-06T12:02:45;98948.41;;;-3.17;60.27
64679;BME280;51094;53.864;27.676;2024-01-06T12:05:14;99009.03;;;-2.97;59.83
64679;BME280;51094;53.864;27.676;2024-01-06T12:07:42;98975.88;;;-2.93;60.03
64679;BME280;51094;53.864;27.676;2024-01-06T12:10:13;99016.97;;;-2.71;59.54
64679;BME280;51094;53.864;27.676;2024-01-06T12:12:41;98960.09;;;-3.09;59.82
64679;BME280;51094;53.864;27.676;2024-01-06T12:15:08;99019.63;;;-2.76;60.01
64679;BME280;51094;53.864;27.676;2024-01-06T12:17:39;98877.47;;;-3.71;59.62
64679;BME280;51094;53.864;27.676;2024-01-06T12:20:07;99032.53;;;-2.85;59.47
64679;BME280;51094;53.864;27.676;2024-01-06T12:22:35;99053.34;;;-2.66;59.61
64679;BME280;51094;53.864;27.676;2024-01-06T12:25:02;99043.31;;;-2.72;59.04
64679;BME280;51094;53.864;27.676;2024-01-06T12:27:32;98999.31;;;-3.20;58.97
64679;BME280;51094;53.864;27.676;2024-01-06T12:29:59;99040.59;;;-3.06;59.76
64679;BME280;51094;53.864;27.676;2024-01-06T12:32:27;99003.09;;;-3.41;59.63
64679;BME280;51094;53.864;27.676;2024-01-06T12:34:54;99056.59;;;-3.01;59.73
64679;BME280;51094;53.864;27.676;2024-01-06T12:37:25;99046.41;;;-3.01;59.87
64679;BME280;51094;53.864;27.676;2024-01-06T12:39:52;99027.25;;;-3.17;59.57
64679;BME280;51094;53.864;27.676;2024-01-06T12:42:20;99050.59;;;-2.98;60.16
64679;BME280;51094;53.864;27.676;2024-01-06T12:44:48;99027.00;;;-3.05;59.93
64679;BME280;51094;53.864;27.676;2024-01-06T12:47:15;99033.69;;;-3.01;59.78
64679;BME280;51094;53.864;27.676;2024-01-06T12:49:43;99007.41;;;-3.45;59.19
64679;BME280;51094;53.864;27.676;2024-01-06T12:52:10;99054.47;;;-3.22;59.87
64679;BME280;51094;53.864;27.676;2024-01-06T12:54:38;98995.84;;;-3.59;60.16
64679;BME280;51094;53.864;27.676;2024-01-06T12:57:07;98962.19;;;-3.74;59.61
64679;BME280;51094;53.864;27.676;2024-01-06T12:59:34;99026.75;;;-3.38;58.96
64679;BME280;51094;53.864;27.676;2024-01-06T13:02:01;99037.00;;;-3.41;59.65
64679;BME280;51094;53.864;27.676;2024-01-06T13:04:29;98985.13;;;-3.77;59.81